Tiempo atmosférico en la estación meteorológica de Blanes, Girona (60 m.)

Fecha
DESCASC
Temp. máxima en grados centígrados (hora)
DESCASC
Temp. mínima en grados centígrados (hora)
DESCASC
Temp. media en grados centígrados
DESCASC
Racha de viento máxima en m/sg (hora)
DESCASC
Velocidad máxima media en intervalos de 10 minutos(hora)
DESCASC
Precipitaciones diarias en mm
DESCASC
Precipitaciones de 00:00 a 06:00 en mm
DESCASC
Precipitaciones de 06:00 a 12:00 en mm
DESCASC
Precipitaciones de 12:00 a 18:00 en mm
DESCASC
Precipitaciones de 18:00 a 24:00 en mm
DESCASC
24-09-2017 27.3 (16:20) 17.8 (07:30) 22.5 8.61 (19:10) 5 (17:10) 0 0 0 0 0
23-09-2017 25.1 (15:20) 17.9 (06:40) 21.5 6.39 (04:30) 4.72 (05:20) 0 0 0 0 0
22-09-2017 23.7 (14:40) 17.8 (05:20) 20.8 6.11 (12:10) 3.61 (23:30) 0 0 0 0 0
21-09-2017 26 (16:40) 16 (00:00) 21 8.89 (18:20) 5.28 (18:30) 0 0 0 0 0
20-09-2017 24.8 (16:10) 14.5 (00:00) 19.6 8.89 (03:30) 5.83 (03:00) 0 0 0 0 0
19-09-2017 24.1 (14:30) 14.5 (00:00) 19.3 6.94 (07:10) 5 (07:00) 0 0 0 0 0
18-09-2017 19.7 (15:20) 14.5 (00:00) 17.1 9.72 (18:30) 5.28 (12:40) 3.4 0 0.4 1.8 1.2
17-09-2017 23.5 (13:10) 12 (00:00) 17.8 15.28 (16:40) 10 (13:50) 0 0 0 0 0
16-09-2017 22.1 (16:30) 11.3 (00:00) 16.7 11.39 (20:00) 6.67 (19:10) 0 0 0 0 0
15-09-2017 18.2 (00:30) 13.3 (00:00) 15.8 11.11 (01:30) 5.28 (01:40) 6.8 4.6 0 0.8 1.4
14-09-2017 26.8 (11:20) 16.8 (00:00) 21.8 12.78 (14:30) 7.22 (15:00) 0 0 0 0 0
13-09-2017 27.8 (13:50) 18.4 (00:00) 23.1 16.11 (17:30) 8.06 (15:20) 0 0 0 0 0
12-09-2017 25.3 (14:50) 17.4 (00:00) 21.3 7.78 (09:40) 5 (10:00) 0.2 0 0.2 0 0
11-09-2017 25.3 (12:50) 17.8 (00:00) 21.5 8.33 (13:30) 5.28 (13:30) 0 0 0 0 0
10-09-2017 25.2 (16:10) 13.6 (00:00) 19.4 7.22 (08:10) 5.56 (08:10) 1.6 1.6 0 0 0
09-09-2017 21.7 (06:30) 14.1 (00:00) 17.9 10.56 (15:10) 6.11 (12:40) 16.2 0 0 15.6 0.6
08-09-2017 26.5 (15:00) 17 (00:00) 21.8 8.61 (19:20) 5.56 (19:40) 27.4 27.4 0 0 0
07-09-2017 26.4 (15:10) 17.7 (00:00) 22.1 8.33 (18:50) 5.28 (06:50) 24.6 24.6 0 0 0
06-09-2017 27.1 (13:40) 20.9 (00:00) 24 6.67 (18:30) 4.44 (18:30) 6.8 0 0 0.8 6
05-09-2017 30.1 (13:30) 20.5 (00:00) 25.3 12.78 (14:30) 8.33 (14:40) 0 0 0 0 0
04-09-2017 26.3 (18:00) 18.3 (00:00) 22.3 8.61 (05:50) 5.56 (09:00) 0.8 0.8 0 0 0
03-09-2017 25.2 (15:20) 17.6 (00:00) 21.4 8.33 (01:50) 5 (01:50) 7.8 7.8 0 0 0
02-09-2017 27.2 (16:10) 16 (00:00) 21.6 11.39 (13:50) 7.5 (13:30) 1 1 0 0 0
01-09-2017 27.5 (13:40) 17.5 (00:00) 22.5 6.94 (02:10) 5.28 (02:10) 0.4 0 0 0 0.4
31-08-2017 23.2 (04:40) 18.4 (00:00) 20.8 8.61 (21:30) 6.11 (21:40) 26.6 0 21 5.6 0
30-08-2017 28.2 (14:20) 23 (00:00) 25.6 16.39 (15:10) 8.33 (15:30) 0 0 0 0 0
29-08-2017 31.1 (12:20) 23.8 (00:00) 27.4 14.44 (17:10) 7.78 (17:10) 0 0 0 0 0
28-08-2017 30.4 (12:50) 22.5 (00:00) 26.4 7.22 (15:30) 4.72 (15:30) 0 0 0 0 0
27-08-2017 27.2 (14:20) 22.8 (00:00) 25 8.06 (14:00) 4.72 (08:20) 0 0 0 0 0
26-08-2017 32.2 (13:40) 22.9 (00:00) 27.6 5.28 (05:10) 3.33 (05:20) 0 0 0 0 0

Gráficas

Temp. máximas Temp. mínimas Temp. medias Precipitaciones Rachas de viento máximas Velocidades máximas media en intervalos de 10 minutos

Datos horarios

Fecha y hora oficial Temperatura (ºC) Velocidad del viento (km/h) Dirección del viento Racha (km/h) Dirección de racha Precipitación (mm) Presión (hPa) Tendencia (hPa) Humedad (%)
2017-09-24 23:00:00 21.4 5 Oeste 14 Sudoeste 0 -- -- 90
2017-09-24 22:00:00 21.6 5 Sudoeste 14 Sudoeste 0 -- -- 89
2017-09-24 21:00:00 22 7 Oeste 24 Sur 0 -- -- 87
2017-09-24 20:00:00 22.3 10 Sudoeste 31 Sur 0 -- -- 87
2017-09-24 19:00:00 23.2 12 Sudoeste 28 Sur 0 -- -- 83
2017-09-24 18:00:00 24.7 17 Sur 29 Sur 0 -- -- 76
2017-09-24 17:00:00 26.2 15 Sur 27 Sudoeste 0 -- -- 73
2017-09-24 16:00:00 26.9 10 Sur 17 Sudoeste 0 -- -- 70
2017-09-24 15:00:00 26.5 6 Sur 11 Sudeste 0 -- -- 66
2017-09-24 14:00:00 25.8 8 Sur 14 Sudeste 0 -- -- 65
2017-09-24 13:00:00 24.7 6 Este 14 Este 0 -- -- 75
2017-09-24 12:00:00 24.4 6 Este 10 Este 0 -- -- 74
2017-09-24 11:00:00 22.8 5 Sur 10 Noroeste 0 -- -- 76
2017-09-24 10:00:00 20.6 6 Norte 18 Norte 0 -- -- 81
2017-09-24 09:00:00 18.9 6 Norte 21 Noroeste 0 -- -- 88
2017-09-24 08:00:00 18 12 Noroeste 19 Noroeste 0 -- -- 89
2017-09-24 07:00:00 18.1 14 Noroeste 24 Noroeste 0 -- -- 89
2017-09-24 06:00:00 18.3 12 Noroeste 16 Noroeste 0 -- -- 90
2017-09-24 05:00:00 18.7 7 Noroeste 11 Noroeste 0 -- -- 91
2017-09-24 04:00:00 18.8 4 Oeste 10 Noroeste 0 -- -- 91
2017-09-24 03:00:00 19 5 Noroeste 10 Noroeste 0 -- -- 92
2017-09-24 02:00:00 19.3 7 Noroeste 10 Noroeste 0 -- -- 89
2017-09-24 01:00:00 20.2 2 Sur 12 Noroeste 0 -- -- 88
2017-09-24 00:00:00 20.6 6 Noroeste 13 Noroeste 0 -- -- 87
2017-09-23 23:00:00 21 7 Noroeste 12 Noroeste 0 -- -- 84
2017-09-23 22:00:00 21.1 4 Oeste 12 Oeste 0 -- -- 85
2017-09-23 21:00:00 21.3 8 Sudoeste 13 Sur 0 -- -- 83
2017-09-23 20:00:00 21.6 9 Sur 16 Sudoeste 0 -- -- 80
2017-09-23 19:00:00 22.4 6 Sur 14 Sur 0 -- -- 81
2017-09-23 18:00:00 23.5 8 Sur 14 Sur 0 -- -- 78
2017-09-23 17:00:00 24.6 11 Sur 18 Sudeste 0 -- -- 73
2017-09-23 16:00:00 24 8 Sur 19 Sudeste 0 -- -- 72
2017-09-23 15:00:00 24.6 9 Sur 15 Sur 0 -- -- 67
2017-09-23 14:00:00 23.8 8 Este 19 Sudeste 0 -- -- 67
2017-09-23 13:00:00 23.8 9 Este 21 Este 0 -- -- 68
2017-09-23 12:00:00 24.9 7 Sudeste 12 Sudeste 0 -- -- 66
2017-09-23 11:00:00 22.9 6 Sur 16 Norte 0 -- -- 71
2017-09-23 10:00:00 19 10 Noroeste 19 Noroeste 0 -- -- 77
2017-09-23 09:00:00 18.7 14 Norte 18 Norte 0 -- -- 78
2017-09-23 08:00:00 18.5 6 Norte 11 Norte 0 -- -- 75
2017-09-23 07:00:00 17.9 8 Norte 17 Norte 0 -- -- 75
2017-09-23 06:00:00 18.2 15 Norte 20 Norte 0 -- -- 71
2017-09-23 05:00:00 18.1 15 Norte 23 Noroeste 0 -- -- 72
2017-09-23 04:00:00 18.7 11 Norte 18 Noroeste 0 -- -- 72
2017-09-23 03:00:00 18.6 8 Norte 17 Noroeste 0 -- -- 74
2017-09-23 02:00:00 19 10 Noroeste 17 Noroeste 0 -- -- 75
2017-09-23 01:00:00 19.4 9 Noroeste 18 Noroeste 0 -- -- 74
2017-09-23 00:00:00 19.3 11 Noroeste 18 Noroeste 0 -- -- 78
2017-09-22 23:00:00 19.8 9 Noroeste 14 Noroeste 0 -- -- 81
2017-09-22 22:00:00 20.1 8 Noroeste 13 Noroeste 0 -- -- 81
2017-09-22 21:00:00 20.4 4 Oeste 9 Oeste 0 -- -- 82
2017-09-22 20:00:00 20.6 5 Oeste 14 Sudoeste 0 -- -- 81
2017-09-22 19:00:00 22 5 Sur 10 Sudoeste 0 -- -- 75
2017-09-22 18:00:00 22.3 5 Sur 8 Sur 0 -- -- 74
2017-09-22 17:00:00 22.2 6 Sur 10 Sur 0 -- -- 74
2017-09-22 16:00:00 22.7 5 Sur 11 Sur 0 -- -- 71
2017-09-22 15:00:00 23.5 7 Sur 16 Este 0 -- -- 66
2017-09-22 14:00:00 22.3 8 Este 18 Este 0 -- -- 72
2017-09-22 13:00:00 21.9 8 Este 22 Este 0 -- -- 71
2017-09-22 12:00:00 21.9 11 Este 21 Este 0 -- -- 71
2017-09-22 11:00:00 22.1 5 Sudeste 14 Este 0 -- -- 81
2017-09-22 10:00:00 20 4 Nordeste 10 Norte 0 -- -- 90
2017-09-22 09:00:00 18.6 4 Norte 10 Nordeste 0 -- -- 94
2017-09-22 08:00:00 18.1 6 Norte 10 Nordeste 0 -- -- 96
2017-09-22 07:00:00 17.9 6 Norte 9 Noroeste 0 -- -- 96
2017-09-22 06:00:00 18 6 Noroeste 8 Noroeste 0 -- -- 96
2017-09-22 05:00:00 18.2 3 Noroeste 7 Noroeste 0 -- -- 95
2017-09-22 04:00:00 18.4 6 Noroeste 8 Noroeste 0 -- -- 94
2017-09-22 03:00:00 18.7 4 Norte 7 Norte 0 -- -- 93
2017-09-22 02:00:00 19.5 0 Calma 5 Nordeste 0 -- -- 91
2017-09-22 01:00:00 20 3 Sur 10 Noroeste 0 -- -- 88
2017-09-22 00:00:00 20.1 10 Noroeste 15 Noroeste 0 -- -- 86
2017-09-21 23:00:00 22 8 Noroeste 17 Oeste 0 -- -- 81
2017-09-21 22:00:00 21.9 9 Sudoeste 24 Oeste 0 -- -- 82
2017-09-21 21:00:00 22 9 Sudoeste 27 Sur 0 -- -- 83
2017-09-21 20:00:00 22.4 10 Sudoeste 29 Sur 0 -- -- 81
2017-09-21 19:00:00 23.2 15 Sur 32 Sudoeste 0 -- -- 76
2017-09-21 18:00:00 24.7 13 Sur 22 Sudoeste 0 -- -- 73
2017-09-21 17:00:00 25.9 7 Sur 16 Sur 0 -- -- 69
2017-09-21 16:00:00 25.4 6 Sudeste 13 Este 0 -- -- 69
2017-09-21 15:00:00 25 5 Sudeste 15 Sudeste 0 -- -- 67
2017-09-21 14:00:00 24 8 Sudeste 16 Sudeste 0 -- -- 68
2017-09-21 13:00:00 23.7 8 Sudeste 15 Sudeste 0 -- -- 69
2017-09-21 12:00:00 22.7 6 Sudeste 11 Sudeste 0 -- -- 71
2017-09-21 11:00:00 20 4 Nordeste 10 Noroeste 0 -- -- 72
2017-09-21 10:00:00 18 8 Norte 14 Norte 0 -- -- 73
2017-09-21 09:00:00 17.2 10 Noroeste 16 Noroeste 0 -- -- 72
2017-09-21 08:00:00 16 10 Noroeste 12 Noroeste 0 -- -- 77
2017-09-21 07:00:00 16 6 Noroeste 12 Noroeste 0 -- -- 75
2017-09-21 06:00:00 17.6 8 Noroeste 17 Noroeste 0 -- -- 68
2017-09-21 05:00:00 16.8 6 Noroeste 15 Noroeste 0 -- -- 72
2017-09-21 04:00:00 17.6 13 Noroeste 20 Noroeste 0 -- -- 67
2017-09-21 03:00:00 17.4 12 Noroeste 18 Noroeste 0 -- -- 67
2017-09-21 02:00:00 17.4 14 Noroeste 22 Noroeste 0 -- -- 70
2017-09-21 01:00:00 17.7 14 Noroeste 22 Noroeste 0 -- -- 74
2017-09-21 00:00:00 18.4 14 Noroeste 20 Noroeste 0 -- -- 76
2017-09-20 23:00:00 19.6 9 Noroeste 19 Sudoeste 0 -- -- 72
2017-09-20 22:00:00 19.2 10 Sur 20 Sur 0 -- -- 79
2017-09-20 21:00:00 19.4 11 Sur 29 Sur 0 -- -- 81
2017-09-20 20:00:00 19.8 12 Sur 26 Sur 0 -- -- 76
2017-09-20 19:00:00 21.1 12 Sur 25 Sur 0 -- -- 69
2017-09-20 18:00:00 23.7 13 Sur 25 Sudoeste 0 -- -- 62
2017-09-20 17:00:00 24.1 12 Sur 21 Sudoeste 0 -- -- 59
2017-09-20 16:00:00 24.7 11 Sur 22 Sur 0 -- -- 56
2017-09-20 15:00:00 24.5 9 Sur 17 Sur 0 -- -- 53
2017-09-20 14:00:00 24.5 9 Sur 17 Sur 0 -- -- 53
2017-09-20 13:00:00 24.2 8 Sur 17 Sudeste 0 -- -- 54
2017-09-20 12:00:00 23 8 Sur 11 Sur 0 -- -- 52
2017-09-20 11:00:00 19.4 7 Noroeste 17 Norte 0 -- -- 55
2017-09-20 10:00:00 17.3 6 Norte 18 Norte 0 -- -- 57
2017-09-20 09:00:00 14.8 12 Norte 25 Norte 0 -- -- 65
2017-09-20 08:00:00 14.5 10 Norte 24 Norte 0 -- -- 62
2017-09-20 07:00:00 14.8 11 Noroeste 27 Norte 0 -- -- 61
2017-09-20 06:00:00 15.1 14 Norte 27 Norte 0 -- -- 60
2017-09-20 05:00:00 15.3 11 Noroeste 26 Norte 0 -- -- 62
2017-09-20 04:00:00 16 19 Norte 32 Norte 0 -- -- 59
2017-09-20 03:00:00 16.6 21 Norte 28 Norte 0 -- -- 61
2017-09-20 02:00:00 17.2 17 Norte 24 Norte 0 -- -- 72
2017-09-20 01:00:00 17.4 12 Noroeste 17 Norte 0 -- -- 79
2017-09-20 00:00:00 18 14 Norte 18 Norte 0 -- -- 76
2017-09-19 23:00:00 18.5 10 Noroeste 18 Noroeste 0 -- -- 74
2017-09-19 22:00:00 18.8 4 Oeste 13 Oeste 0 -- -- 73
2017-09-19 21:00:00 19.2 6 Sudoeste 13 Sudeste 0 -- -- 73
2017-09-19 20:00:00 19.4 7 Sur 14 Sur 0 -- -- 69
2017-09-19 19:00:00 20.3 6 Sur 14 Sur 0 -- -- 67
2017-09-19 18:00:00 21.9 8 Sur 20 Sur 0 -- -- 63
2017-09-19 17:00:00 23.1 10 Sur 18 Sur 0 -- -- 61
2017-09-19 16:00:00 21.6 8 Sur 18 Sudeste 0 -- -- 64
2017-09-19 15:00:00 22.9 9 Sur 17 Sur 0 -- -- 61
2017-09-19 14:00:00 23.6 8 Sur 14 Sur 0 -- -- 56
2017-09-19 13:00:00 23.3 9 Sur 15 Sur 0 -- -- 60
2017-09-19 12:00:00 20.2 4 Sur 15 Nordeste 0 -- -- 63
2017-09-19 11:00:00 17.2 12 Norte 22 Norte 0 -- -- 67
2017-09-19 10:00:00 15.7 14 Norte 24 Norte 0 -- -- 73
2017-09-19 09:00:00 15.2 15 Norte 24 Norte 0 -- -- 75
2017-09-19 08:00:00 14.6 17 Norte 25 Norte 0 -- -- 80
2017-09-19 07:00:00 14.8 18 Norte 23 Norte 0 -- -- 84
2017-09-19 06:00:00 14.7 13 Norte 21 Norte 0 -- -- 88
2017-09-19 05:00:00 15.2 13 Noroeste 19 Noroeste 0 -- -- 89
2017-09-19 04:00:00 16 13 Noroeste 21 Noroeste 0 -- -- 85
2017-09-19 03:00:00 16.1 14 Noroeste 24 Noroeste 0 -- -- 83
2017-09-19 02:00:00 16.1 13 Noroeste 18 Noroeste 0 -- -- 80
2017-09-19 01:00:00 15.7 9 Noroeste 15 Norte 0 -- -- 82
2017-09-19 00:00:00 15.4 8 Noroeste 11 Noroeste 0 -- -- 86
2017-09-18 23:00:00 15.4 5 Norte 19 Norte 0.2 -- -- 90
2017-09-18 22:00:00 16.1 8 Nordeste 18 Nordeste 0.6 -- -- 90
2017-09-18 21:00:00 16.7 8 Nordeste 20 Este 0.4 -- -- 87
2017-09-18 20:00:00 18.1 10 Nordeste 21 Este 0 -- -- 77
2017-09-18 19:00:00 18.2 15 Este 35 Este 0 -- -- 74
2017-09-18 18:00:00 18.6 17 Este 29 Este 0 -- -- 74
2017-09-18 17:00:00 18.8 18 Este 30 Este 0 -- -- 72
2017-09-18 16:00:00 19 10 Este 23 Este 0 -- -- 75
2017-09-18 15:00:00 19.5 7 Este 20 Nordeste 0 -- -- 72
2017-09-18 14:00:00 16.8 9 Norte 24 Norte 0 -- -- 88
2017-09-18 13:00:00 14.6 14 Norte 33 Oeste 1.8 -- -- 93
2017-09-18 12:00:00 16.8 15 Norte 28 Norte 0 -- -- 70
2017-09-18 11:00:00 17.1 11 Norte 24 Norte 0 -- -- 69
2017-09-18 10:00:00 16.6 13 Norte 18 Norte 0 -- -- 69
2017-09-18 09:00:00 16 17 Norte 22 Norte 0 -- -- 69
2017-09-18 08:00:00 15.2 16 Norte 24 Norte 0.2 -- -- 72
2017-09-18 07:00:00 15.5 17 Norte 23 Norte 0.2 -- -- 74
2017-09-18 06:00:00 16 17 Norte 22 Norte 0 -- -- 67
2017-09-18 05:00:00 16.1 17 Norte 23 Norte 0 -- -- 67
2017-09-18 04:00:00 16.2 14 Norte 26 Norte 0 -- -- 68
2017-09-18 03:00:00 16.4 14 Norte 22 Norte 0 -- -- 69
2017-09-18 02:00:00 16.5 13 Norte 18 Norte 0 -- -- 70
2017-09-18 01:00:00 16.8 12 Norte 21 Norte 0 -- -- 72
2017-09-18 00:00:00 17.2 15 Norte 20 Norte 0 -- -- 74
2017-09-17 23:00:00 17.6 15 Norte 26 Norte 0 -- -- 71
2017-09-17 22:00:00 18 16 Noroeste 24 Noroeste 0 -- -- 70
2017-09-17 21:00:00 19.4 12 Norte 26 Sudoeste 0 -- -- 68
2017-09-17 20:00:00 20.9 13 Sudoeste 37 Sur 0 -- -- 64
2017-09-17 19:00:00 21.2 15 Sudoeste 43 Sudoeste 0 -- -- 66
2017-09-17 18:00:00 21.3 17 Sudoeste 44 Sur 0 -- -- 64
2017-09-17 17:00:00 22.1 20 Sudoeste 55 Sudoeste 0 -- -- 59
2017-09-17 16:00:00 22.7 32 Sur 52 Sudoeste 0 -- -- 55
2017-09-17 15:00:00 22.6 34 Sur 54 Sudoeste 0 -- -- 50
2017-09-17 14:00:00 22.6 35 Sur 53 Sudoeste 0 -- -- 50
2017-09-17 13:00:00 23 12 Sur 27 Sudeste 0 -- -- 48
2017-09-17 12:00:00 22.3 7 Sur 16 Sur 0 -- -- 49
2017-09-17 11:00:00 19.3 7 Norte 19 Noroeste 0 -- -- 46
2017-09-17 10:00:00 16.7 12 Noroeste 23 Noroeste 0 -- -- 56
2017-09-17 09:00:00 14.8 13 Noroeste 22 Noroeste 0 -- -- 65
2017-09-17 08:00:00 14 13 Noroeste 22 Noroeste 0 -- -- 73
2017-09-17 07:00:00 14.2 14 Noroeste 19 Noroeste 0 -- -- 71
2017-09-17 06:00:00 13.8 14 Noroeste 22 Noroeste 0 -- -- 68
2017-09-17 05:00:00 13.8 13 Noroeste 23 Noroeste 0 -- -- 71
2017-09-17 04:00:00 12.9 14 Noroeste 20 Noroeste 0 -- -- 78
2017-09-17 03:00:00 12.3 12 Noroeste 22 Noroeste 0 -- -- 81
2017-09-17 02:00:00 12.7 11 Noroeste 18 Norte 0 -- -- 80
2017-09-17 01:00:00 13.3 13 Norte 17 Noroeste 0 -- -- 78
2017-09-17 00:00:00 13.8 10 Norte 24 Norte 0 -- -- 74
2017-09-16 23:00:00 14 15 Norte 26 Norte 0 -- -- 74
2017-09-16 22:00:00 14.6 9 Nordeste 27 Norte 0 -- -- 73
2017-09-16 21:00:00 15.8 21 Norte 28 Norte 0 -- -- 66
2017-09-16 20:00:00 19 17 Sudoeste 41 Sudoeste 0 -- -- 62
2017-09-16 19:00:00 19.5 21 Sur 35 Sudoeste 0 -- -- 60
2017-09-16 18:00:00 20.8 14 Sur 26 Sur 0 -- -- 60
2017-09-16 17:00:00 22.1 11 Sur 23 Sur 0 -- -- 56
2017-09-16 16:00:00 20.9 14 Sur 23 Sudeste 0 -- -- 68
2017-09-16 15:00:00 21.4 11 Sur 21 Sudeste 0 -- -- 62
2017-09-16 14:00:00 20.8 7 Sur 16 Sur 0 -- -- 62
2017-09-16 13:00:00 20 5 Sur 9 Sudeste 0 -- -- 65
2017-09-16 12:00:00 19.4 5 Sur 11 Sudoeste 0 -- -- 66
2017-09-16 11:00:00 17.8 4 Norte 17 Norte 0 -- -- 70
2017-09-16 10:00:00 15.1 11 Norte 24 Noroeste 0 -- -- 76
2017-09-16 09:00:00 12.9 18 Noroeste 25 Noroeste 0 -- -- 83
2017-09-16 08:00:00 11.6 15 Noroeste 25 Noroeste 0 -- -- 87
2017-09-16 07:00:00 11.5 17 Noroeste 22 Norte 0 -- -- 87
2017-09-16 06:00:00 12.2 14 Noroeste 25 Norte 0 -- -- 86
2017-09-16 05:00:00 12.4 14 Norte 27 Noroeste 0 -- -- 87
2017-09-16 04:00:00 12.7 18 Noroeste 27 Noroeste 0 -- -- 85
2017-09-16 03:00:00 13.1 14 Noroeste 21 Noroeste 0 -- -- 88
2017-09-16 02:00:00 14 12 Noroeste 21 Noroeste 0 -- -- 83
2017-09-16 01:00:00 13.7 16 Noroeste 23 Noroeste 0 -- -- 89
2017-09-16 00:00:00 13.5 12 Noroeste 18 Noroeste 0 -- -- 92
2017-09-15 23:00:00 13.4 7 Norte 14 Noroeste 0 -- -- 92
2017-09-15 22:00:00 13.3 12 Noroeste 30 Noroeste 0 -- -- 92
2017-09-15 21:00:00 13.5 9 Noroeste 14 Noroeste 0.2 -- -- 94
2017-09-15 20:00:00 13.5 4 Noroeste 10 Este 0.2 -- -- 93
2017-09-15 19:00:00 13.7 7 Norte 14 Noroeste 1 -- -- 91
2017-09-15 18:00:00 14 7 Oeste 16 Nordeste 0.2 -- -- 87
2017-09-15 17:00:00 14 8 Oeste 19 Sudoeste 0.2 -- -- 89
2017-09-15 16:00:00 14.3 6 Norte 25 Norte 0.4 -- -- 85
2017-09-15 15:00:00 14.6 14 Norte 27 Noroeste 0 -- -- 80
2017-09-15 14:00:00 14.4 11 Norte 27 Norte 0 -- -- 80
2017-09-15 13:00:00 14.1 12 Norte 32 Noroeste 0 -- -- 82
2017-09-15 12:00:00 14.2 5 Sudeste 29 Norte 0 -- -- 81
2017-09-15 11:00:00 14.2 10 Norte 28 Noroeste 0 -- -- 79
2017-09-15 10:00:00 14.4 12 Nordeste 31 Este 0 -- -- 78
2017-09-15 09:00:00 14.4 7 Norte 22 Noroeste 0 -- -- 81
2017-09-15 08:00:00 14.1 6 Norte 20 Norte 0 -- -- 83
2017-09-15 07:00:00 14 7 Norte 23 Nordeste 0 -- -- 86
2017-09-15 06:00:00 13.9 7 Norte 12 Nordeste 0 -- -- 90
2017-09-15 05:00:00 14 5 Noroeste 17 Norte 0 -- -- 92
2017-09-15 04:00:00 14.1 5 Noroeste 15 Sudoeste 0 -- -- 90
2017-09-15 03:00:00 14.3 6 Norte 13 Oeste 3.8 -- -- 88
2017-09-15 02:00:00 15.7 13 Norte 40 Norte 0.8 -- -- 76
2017-09-15 01:00:00 18.2 15 Norte 36 Nordeste 0 -- -- 56
2017-09-15 00:00:00 18 14 Norte 36 Nordeste 0 -- -- 57
2017-09-14 23:00:00 17.7 15 Norte 34 Norte 0 -- -- 58
2017-09-14 22:00:00 16.8 23 Norte 44 Noroeste 0 -- -- 65
2017-09-14 21:00:00 18.6 18 Norte 37 Norte 0 -- -- 56
2017-09-14 20:00:00 20 19 Norte 29 Norte 0 -- -- 55
2017-09-14 19:00:00 21.8 14 Norte 24 Norte 0 -- -- 52
2017-09-14 18:00:00 22.1 12 Este 27 Este 0 -- -- 69
2017-09-14 17:00:00 22.4 18 Este 28 Este 0 -- -- 70
2017-09-14 16:00:00 23.4 6 Este 34 Este 0 -- -- 74
2017-09-14 15:00:00 23.3 26 Este 46 Este 0 -- -- 74
2017-09-14 14:00:00 23.1 23 Este 34 Este 0 -- -- 74
2017-09-14 13:00:00 24.2 15 Este 24 Este 0 -- -- 77
2017-09-14 12:00:00 25.9 17 Sur 29 Sur 0 -- -- 75
2017-09-14 11:00:00 26.3 18 Sur 28 Sudoeste 0 -- -- 71
2017-09-14 10:00:00 23.4 15 Sudoeste 34 Sudoeste 0 -- -- 79
2017-09-14 09:00:00 22.5 15 Sudoeste 29 Oeste 0 -- -- 81
2017-09-14 08:00:00 21.7 8 Sudoeste 20 Sudoeste 0 -- -- 84
2017-09-14 07:00:00 21.4 7 Oeste 17 Sudoeste 0 -- -- 82
2017-09-14 06:00:00 21.6 8 Sudoeste 19 Oeste 0 -- -- 83
2017-09-14 05:00:00 21.7 6 Sudoeste 14 Sudoeste 0 -- -- 81
2017-09-14 04:00:00 21.9 8 Oeste 23 Oeste 0 -- -- 78
2017-09-14 03:00:00 21.8 8 Sudoeste 22 Sudoeste 0 -- -- 79
2017-09-14 02:00:00 21.7 3 Sudeste 16 Sudoeste 0 -- -- 76
2017-09-14 01:00:00 21.5 4 Sudoeste 13 Oeste 0 -- -- 73
2017-09-14 00:00:00 22 4 Sur 12 Oeste 0 -- -- 74
2017-09-13 23:00:00 22.8 10 Oeste 43 Sudoeste 0 -- -- 79
2017-09-13 22:00:00 23.1 19 Sudoeste 46 Sudoeste 0 -- -- 80
2017-09-13 21:00:00 23.4 19 Sudoeste 54 Sudoeste 0 -- -- 76
2017-09-13 20:00:00 23.6 17 Sudoeste 47 Oeste 0 -- -- 75
2017-09-13 19:00:00 24.5 19 Sudoeste 54 Sur 0 -- -- 70
2017-09-13 18:00:00 25.2 24 Sudoeste 58 Sudoeste 0 -- -- 67
2017-09-13 17:00:00 25.7 23 Sudoeste 57 Sur 0 -- -- 63
2017-09-13 16:00:00 26.1 29 Sur 55 Sudoeste 0 -- -- 62
2017-09-13 15:00:00 26.3 26 Sur 48 Sudoeste 0 -- -- 59
2017-09-13 14:00:00 27.7 13 Sur 25 Sudoeste 0 -- -- 61
2017-09-13 13:00:00 27.4 8 Sur 15 Sudeste 0 -- -- 62
2017-09-13 12:00:00 25.9 7 Sudeste 10 Sudeste 0 -- -- 67
2017-09-13 11:00:00 24.5 4 Sudeste 8 Sur 0 -- -- 68
2017-09-13 10:00:00 21.1 6 Norte 18 Noroeste 0 -- -- 78
2017-09-13 09:00:00 18.6 10 Noroeste 18 Noroeste 0 -- -- 85
2017-09-13 08:00:00 19.1 12 Noroeste 20 Norte 0 -- -- 85
2017-09-13 07:00:00 18.6 13 Norte 18 Norte 0 -- -- 87
2017-09-13 06:00:00 19.6 11 Noroeste 17 Noroeste 0 -- -- 84
2017-09-13 05:00:00 19.4 10 Noroeste 14 Noroeste 0 -- -- 84
2017-09-13 04:00:00 20 6 Oeste 12 Oeste 0 -- -- 81
2017-09-13 03:00:00 20.1 6 Oeste 16 Oeste 0 -- -- 79
2017-09-13 02:00:00 20.2 8 Oeste 13 Oeste 0 -- -- 78
2017-09-13 01:00:00 20.4 7 Oeste 17 Sudoeste 0 -- -- 77
2017-09-13 00:00:00 20.4 6 Sur 26 Sudoeste 0 -- -- 77
2017-09-12 23:00:00 20.8 10 Sudoeste 19 Sur 0 -- -- 75
2017-09-12 22:00:00 20.6 8 Sur 15 Sudoeste 0 -- -- 74
2017-09-12 21:00:00 20.6 9 Sur 18 Sudeste 0 -- -- 74
2017-09-12 20:00:00 20.8 9 Sur 16 Sudeste 0 -- -- 71
2017-09-12 19:00:00 21.3 10 Sur 22 Sur 0 -- -- 72
2017-09-12 18:00:00 21.9 10 Sur 23 Sur 0 -- -- 67
2017-09-12 17:00:00 24.3 13 Sur 23 Sur 0 -- -- 61
2017-09-12 16:00:00 23.4 11 Sur 22 Sudeste 0 -- -- 63
2017-09-12 15:00:00 24.9 12 Sur 21 Sudeste 0 -- -- 56
2017-09-12 14:00:00 24.8 10 Sur 17 Sur 0 -- -- 60
2017-09-12 13:00:00 21.7 8 Sur 15 Oeste 0 -- -- 70
2017-09-12 12:00:00 20.1 8 Noroeste 20 Norte 0 -- -- 70
2017-09-12 11:00:00 19.4 13 Norte 22 Norte 0 -- -- 71
2017-09-12 10:00:00 18.4 18 Norte 28 Noroeste 0 -- -- 71
2017-09-12 09:00:00 17.4 15 Norte 22 Noroeste 0.2 -- -- 74
2017-09-12 08:00:00 18.6 10 Norte 18 Oeste 0 -- -- 66
2017-09-12 07:00:00 19.4 5 Norte 12 Noroeste 0 -- -- 69
2017-09-12 06:00:00 19.9 6 Norte 9 Noroeste 0 -- -- 73
2017-09-12 05:00:00 20.4 2 Norte 7 Sudeste 0 -- -- 71
2017-09-12 04:00:00 20.8 2 Nordeste 14 Este 0 -- -- 68
2017-09-12 03:00:00 21.2 8 Nordeste 24 Este 0 -- -- 67
2017-09-12 02:00:00 22 6 Este 16 Sudeste 0 -- -- 70
2017-09-12 01:00:00 22.1 4 Sudoeste 15 Sudeste 0 -- -- 71
2017-09-12 00:00:00 21.8 8 Sur 18 Sur 0 -- -- 72
2017-09-11 23:00:00 22 4 Sudoeste 17 Sur 0 -- -- 71
2017-09-11 22:00:00 22 4 Noroeste 21 Sudeste 0 -- -- 72
2017-09-11 21:00:00 22.2 4 Noroeste 18 Sudeste 0 -- -- 71
2017-09-11 20:00:00 22.4 8 Sur 18 Sudeste 0 -- -- 72
2017-09-11 19:00:00 23.7 4 Sur 19 Sudeste 0 -- -- 65
2017-09-11 18:00:00 24.2 5 Sudeste 20 Este 0 -- -- 64
2017-09-11 17:00:00 24.5 7 Sudeste 22 Sudeste 0 -- -- 65
2017-09-11 16:00:00 24.2 11 Este 24 Este 0 -- -- 65
2017-09-11 15:00:00 24.4 8 Este 26 Este 0 -- -- 67
2017-09-11 14:00:00 23.3 17 Este 30 Este 0 -- -- 71
2017-09-11 13:00:00 25 8 Este 18 Este 0 -- -- 52
2017-09-11 12:00:00 24.6 9 Sur 17 Sur 0 -- -- 51
2017-09-11 11:00:00 23.4 7 Este 14 Este 0 -- -- 50
2017-09-11 10:00:00 20.4 5 Norte 16 Norte 0 -- -- 59
2017-09-11 09:00:00 18.6 9 Noroeste 21 Noroeste 0 -- -- 61
2017-09-11 08:00:00 17.9 14 Noroeste 20 Noroeste 0 -- -- 62
2017-09-11 07:00:00 17.8 15 Noroeste 26 Noroeste 0 -- -- 62
2017-09-11 06:00:00 18.1 17 Noroeste 23 Noroeste 0 -- -- 70
2017-09-11 05:00:00 19 10 Noroeste 18 Sudoeste 0 -- -- 72
2017-09-11 04:00:00 19.4 9 Sudoeste 16 Sudoeste 0 -- -- 73
2017-09-11 03:00:00 19.6 6 Oeste 21 Oeste 0 -- -- 69
2017-09-11 02:00:00 19.1 12 Noroeste 18 Noroeste 0 -- -- 67
2017-09-11 01:00:00 19.4 7 Noroeste 15 Oeste 0 -- -- 65
2017-09-11 00:00:00 19 9 Noroeste 13 Noroeste 0 -- -- 66
2017-09-10 23:00:00 19.6 5 Oeste 15 Oeste 0 -- -- 64
2017-09-10 22:00:00 20.5 3 Noroeste 15 Sur 0 -- -- 58
2017-09-10 21:00:00 20.6 5 Sur 15 Sur 0 -- -- 60
2017-09-10 20:00:00 21.1 4 Este 13 Sudeste 0 -- -- 61
2017-09-10 19:00:00 22.9 5 Sur 16 Sur 0 -- -- 58
2017-09-10 18:00:00 24 8 Sur 17 Sur 0 -- -- 56
2017-09-10 17:00:00 24.5 8 Sur 21 Sudoeste 0 -- -- 58
2017-09-10 16:00:00 25 10 Sur 21 Sudoeste 0 -- -- 58
2017-09-10 15:00:00 24.5 10 Sur 18 Sudoeste 0 -- -- 59
2017-09-10 14:00:00 24 10 Sur 20 Sudoeste 0 -- -- 57
2017-09-10 13:00:00 23.8 10 Sur 15 Sur 0 -- -- 56
2017-09-10 12:00:00 21.6 7 Sur 13 Nordeste 0 -- -- 55
2017-09-10 11:00:00 18.9 9 Norte 24 Norte 0 -- -- 61
2017-09-10 10:00:00 16.2 18 Norte 26 Norte 0 -- -- 68
2017-09-10 09:00:00 14.3 17 Norte 26 Norte 0 -- -- 80
2017-09-10 08:00:00 13.9 19 Norte 24 Norte 0 -- -- 84
2017-09-10 07:00:00 14.3 17 Norte 24 Noroeste 0 -- -- 88
2017-09-10 06:00:00 14.3 15 Noroeste 24 Noroeste 0 -- -- 90
2017-09-10 05:00:00 14.6 15 Noroeste 20 Noroeste 0 -- -- 87
2017-09-10 04:00:00 14.5 15 Noroeste 19 Noroeste 0 -- -- 89
2017-09-10 03:00:00 14 13 Norte 20 Noroeste 0 -- -- 94
2017-09-10 02:00:00 14.1 6 Oeste 9 Oeste 0.2 -- -- 95
2017-09-10 01:00:00 14.6 4 Nordeste 20 Oeste 1.4 -- -- 93
2017-09-10 00:00:00 14.8 10 Noroeste 20 Noroeste 0 -- -- 87
2017-09-09 23:00:00 14.6 12 Noroeste 20 Noroeste 0 -- -- 90
2017-09-09 22:00:00 14.6 13 Noroeste 21 Noroeste 0 -- -- 94
2017-09-09 21:00:00 14.6 17 Norte 22 Noroeste 0 -- -- 96
2017-09-09 20:00:00 14.4 16 Noroeste 21 Noroeste 0 -- -- 96
2017-09-09 19:00:00 14.1 12 Norte 17 Norte 0.6 -- -- 97
2017-09-09 18:00:00 14.3 11 Norte 18 Noroeste 1.2 -- -- 97
2017-09-09 17:00:00 14.6 10 Nordeste 27 Norte 1.4 -- -- 97
2017-09-09 16:00:00 14.5 17 Norte 38 Nordeste 12.8 -- -- 97
2017-09-09 15:00:00 17 18 Norte 33 Norte 0.2 -- -- 75
2017-09-09 14:00:00 21 13 Nordeste 30 Nordeste 0 -- -- 66
2017-09-09 13:00:00 21.3 17 Nordeste 36 Este 0 -- -- 71
2017-09-09 12:00:00 20.9 10 Nordeste 26 Norte 0 -- -- 81
2017-09-09 11:00:00 20 17 Norte 26 Norte 0 -- -- 82
2017-09-09 10:00:00 20 16 Norte 23 Norte 0 -- -- 80
2017-09-09 09:00:00 20.5 14 Norte 22 Norte 0 -- -- 79
2017-09-09 08:00:00 21.6 0 Calma 11 Sudoeste 0 -- -- 85
2017-09-09 07:00:00 21.7 8 Oeste 13 Sudoeste 0 -- -- 82
2017-09-09 06:00:00 21.5 6 Oeste 11 Oeste 0 -- -- 82
2017-09-09 05:00:00 20.8 5 Oeste 9 Noroeste 0 -- -- 82
2017-09-09 04:00:00 20.5 3 Sur 13 Sudoeste 0 -- -- 82
2017-09-09 03:00:00 21.3 3 Oeste 18 Oeste 0 -- -- 75
2017-09-09 02:00:00 21 8 Oeste 18 Oeste 0 -- -- 72
2017-09-09 01:00:00 20.8 6 Oeste 18 Oeste 0 -- -- 74
2017-09-09 00:00:00 21.1 10 Oeste 19 Sudoeste 0 -- -- 74
2017-09-08 23:00:00 21.9 6 Oeste 27 Sur 0 -- -- 76
2017-09-08 22:00:00 21.8 10 Sur 26 Sudoeste 0 -- -- 85
2017-09-08 21:00:00 21.6 16 Sur 31 Sudoeste 0 -- -- 84
2017-09-08 20:00:00 21.4 14 Sur 31 Sur 0 -- -- 81
2017-09-08 19:00:00 22.5 13 Sur 26 Sudoeste 0 -- -- 74
2017-09-08 18:00:00 24.5 10 Sur 21 Sur 0 -- -- 70
2017-09-08 17:00:00 25.5 11 Sur 22 Sur 0 -- -- 63
2017-09-08 16:00:00 26.4 10 Sur 21 Sur 0 -- -- 60
2017-09-08 15:00:00 26.5 11 Sur 20 Sur 0 -- -- 61
2017-09-08 14:00:00 25.8 9 Sur 15 Sudeste 0 -- -- 62
2017-09-08 13:00:00 24.3 8 Sur 14 Sur 0 -- -- 63
2017-09-08 12:00:00 24.2 6 Sur 10 Sur 0 -- -- 63
2017-09-08 11:00:00 22.1 5 Sudoeste 13 Norte 0 -- -- 61
2017-09-08 10:00:00 20.1 8 Norte 20 Noroeste 0 -- -- 66
2017-09-08 09:00:00 17.8 14 Noroeste 19 Noroeste 0 -- -- 72
2017-09-08 08:00:00 17.9 12 Norte 17 Noroeste 0 -- -- 72
2017-09-08 07:00:00 18 10 Noroeste 15 Noroeste 0 -- -- 72
2017-09-08 06:00:00 17.7 6 Noroeste 16 Noroeste 0 -- -- 75
2017-09-08 05:00:00 17.2 15 Norte 27 Norte 0 -- -- 77
2017-09-08 04:00:00 18.5 15 Norte 25 Sudoeste 6 -- -- 92
2017-09-08 03:00:00 20.5 16 Sudoeste 25 Sudoeste 21.4 -- -- 94
2017-09-08 02:00:00 22 8 Sur 15 Sur 0 -- -- 86
2017-09-08 01:00:00 21.9 6 Sur 14 Sur 0 -- -- 86
2017-09-08 00:00:00 22 7 Sur 16 Sur 0 -- -- 83
2017-09-07 23:00:00 22 8 Sur 20 Sudoeste 0 -- -- 83
2017-09-07 22:00:00 22 8 Sur 17 Sur 0 -- -- 81
2017-09-07 21:00:00 22 10 Sur 27 Sur 0 -- -- 81
2017-09-07 20:00:00 22.2 12 Sur 29 Sudoeste 0 -- -- 79
2017-09-07 19:00:00 23 14 Sur 30 Sudoeste 0 -- -- 74
2017-09-07 18:00:00 24.4 10 Sur 27 Sudoeste 0 -- -- 71
2017-09-07 17:00:00 25.1 13 Sur 28 Sudoeste 0 -- -- 70
2017-09-07 16:00:00 26.2 10 Sur 22 Sur 0 -- -- 65
2017-09-07 15:00:00 26.3 9 Sur 20 Sur 0 -- -- 63
2017-09-07 14:00:00 26.1 8 Sur 15 Sur 0 -- -- 62
2017-09-07 13:00:00 25.3 9 Sur 15 Sur 0 -- -- 68
2017-09-07 12:00:00 22.7 6 Sur 9 Sudoeste 0 -- -- 72
2017-09-07 11:00:00 21.1 6 Norte 17 Norte 0 -- -- 68
2017-09-07 10:00:00 19.9 15 Norte 28 Norte 0 -- -- 72
2017-09-07 09:00:00 18.6 16 Norte 21 Norte 0 -- -- 80
2017-09-07 08:00:00 18.2 9 Norte 19 Noroeste 0 -- -- 86
2017-09-07 07:00:00 17.9 16 Norte 24 Norte 0 -- -- 84
2017-09-07 06:00:00 17.9 12 Norte 21 Norte 0 -- -- 87
2017-09-07 05:00:00 18.8 13 Norte 21 Norte 0 -- -- 97
2017-09-07 04:00:00 19.3 11 Norte 19 Norte 1.2 -- -- 98
2017-09-07 03:00:00 19.7 10 Noroeste 15 Noroeste 0.8 -- -- 98
2017-09-07 02:00:00 19.4 4 Norte 18 Nordeste 6.8 -- -- 98
2017-09-07 01:00:00 20.5 7 Norte 20 Oeste 15.8 -- -- 98
2017-09-07 00:00:00 20.9 7 Norte 17 Sudoeste 2 -- -- 97
2017-09-06 23:00:00 21.1 11 Noroeste 17 Noroeste 3.4 -- -- 94
2017-09-06 22:00:00 21.8 7 Noroeste 14 Noroeste 0 -- -- 88
2017-09-06 21:00:00 21.6 9 Noroeste 18 Noroeste 0 -- -- 89
2017-09-06 20:00:00 21.4 8 Noroeste 15 Norte 0.2 -- -- 92
2017-09-06 19:00:00 21.3 13 Norte 24 Norte 0.4 -- -- 92
2017-09-06 18:00:00 24.7 9 Nordeste 19 Este 0.8 -- -- 73
2017-09-06 17:00:00 25.4 6 Este 16 Sudeste 0 -- -- 68
2017-09-06 16:00:00 26.5 5 Sudeste 13 Este 0 -- -- 64
2017-09-06 15:00:00 26.9 4 Sur 13 Sur 0 -- -- 63
2017-09-06 14:00:00 26.8 3 Oeste 15 Sudeste 0 -- -- 63
2017-09-06 13:00:00 25.9 8 Sudeste 15 Este 0 -- -- 68
2017-09-06 12:00:00 26.3 6 Este 15 Sudeste 0 -- -- 66
2017-09-06 11:00:00 25.5 3 Este 9 Este 0 -- -- 70
2017-09-06 10:00:00 25 9 Este 14 Este 0 -- -- 73
2017-09-06 09:00:00 23.9 6 Nordeste 12 Este 0 -- -- 85
2017-09-06 08:00:00 22.7 4 Nordeste 9 Noroeste 0 -- -- 92
2017-09-06 07:00:00 22.7 6 Norte 13 Noroeste 0 -- -- 90
2017-09-06 06:00:00 22.8 8 Noroeste 10 Noroeste 0 -- -- 88
2017-09-06 05:00:00 23 6 Noroeste 8 Noroeste 0 -- -- 86
2017-09-06 04:00:00 23.1 3 Norte 8 Noroeste 0 -- -- 84
2017-09-06 03:00:00 23.2 8 Norte 15 Noroeste 0 -- -- 82
2017-09-06 02:00:00 23.5 7 Noroeste 10 Noroeste 0 -- -- 83
2017-09-06 01:00:00 24.1 7 Nordeste 15 Norte 0 -- -- 82
2017-09-06 00:00:00 24.4 8 Oeste 21 Sudoeste 0 -- -- 83
2017-09-05 23:00:00 24.4 11 Sudoeste 20 Oeste 0 -- -- 82
2017-09-05 22:00:00 24.3 8 Sudoeste 17 Sudoeste 0 -- -- 82
2017-09-05 21:00:00 24.6 8 Sudoeste 32 Sudoeste 0 -- -- 80
2017-09-05 20:00:00 25.2 12 Sur 35 Sudoeste 0 -- -- 78
2017-09-05 19:00:00 26.4 18 Sur 32 Sur 0 -- -- 74
2017-09-05 18:00:00 27.3 21 Sur 36 Sur 0 -- -- 71
2017-09-05 17:00:00 28.1 20 Sur 38 Sudoeste 0 -- -- 68
2017-09-05 16:00:00 28.2 26 Sur 44 Sur 0 -- -- 68
2017-09-05 15:00:00 28.3 27 Sur 46 Sudoeste 0 -- -- 65
2017-09-05 14:00:00 29.9 16 Sur 31 Sudoeste 0 -- -- 64
2017-09-05 13:00:00 29.6 13 Sur 27 Sudoeste 0 -- -- 64
2017-09-05 12:00:00 29.2 11 Sur 22 Sur 0 -- -- 64
2017-09-05 11:00:00 27.1 6 Sur 11 Sur 0 -- -- 65
2017-09-05 10:00:00 24.9 7 Sudoeste 13 Sudoeste 0 -- -- 64
2017-09-05 09:00:00 22.8 3 Norte 14 Noroeste 0 -- -- 69
2017-09-05 08:00:00 21.3 7 Noroeste 17 Oeste 0 -- -- 74
2017-09-05 07:00:00 21.5 7 Oeste 17 Noroeste 0 -- -- 77
2017-09-05 06:00:00 20.5 14 Noroeste 24 Noroeste 0 -- -- 76
2017-09-05 05:00:00 21 14 Noroeste 22 Noroeste 0 -- -- 75
2017-09-05 04:00:00 21 14 Noroeste 19 Noroeste 0 -- -- 76
2017-09-05 03:00:00 21.3 12 Noroeste 24 Noroeste 0 -- -- 75
2017-09-05 02:00:00 21 13 Noroeste 21 Noroeste 0 -- -- 78
2017-09-05 01:00:00 21.3 15 Noroeste 21 Noroeste 0 -- -- 77
2017-09-05 00:00:00 21.8 5 Noroeste 13 Noroeste 0 -- -- 79
2017-09-04 23:00:00 22 6 Noroeste 9 Noroeste 0 -- -- 80
2017-09-04 22:00:00 22.2 3 Sudoeste 6 Sur 0 -- -- 79
2017-09-04 21:00:00 22.8 2 Sudoeste 7 Sudeste 0 -- -- 76
2017-09-04 20:00:00 24.2 4 Sur 10 Sudeste 0 -- -- 70
2017-09-04 19:00:00 25.4 6 Sur 13 Sur 0 -- -- 65
2017-09-04 18:00:00 26.3 5 Sur 16 Este 0 -- -- 61
2017-09-04 17:00:00 25.6 7 Este 24 Este 0 -- -- 60
2017-09-04 16:00:00 24.3 16 Este 28 Este 0 -- -- 63
2017-09-04 15:00:00 24.5 11 Este 30 Este 0 -- -- 61
2017-09-04 14:00:00 24.7 13 Este 29 Este 0 -- -- 61
2017-09-04 13:00:00 25.2 12 Este 23 Este 0 -- -- 54
2017-09-04 12:00:00 25.6 5 Sudeste 13 Sur 0 -- -- 57
2017-09-04 11:00:00 21.9 8 Norte 18 Noroeste 0 -- -- 81
2017-09-04 10:00:00 20.4 11 Noroeste 24 Norte 0 -- -- 84
2017-09-04 09:00:00 20 20 Norte 26 Norte 0 -- -- 82
2017-09-04 08:00:00 19.1 17 Noroeste 27 Norte 0 -- -- 88
2017-09-04 07:00:00 19.1 15 Norte 24 Noroeste 0 -- -- 92
2017-09-04 06:00:00 18.3 19 Noroeste 31 Oeste 0.6 -- -- 92
2017-09-04 05:00:00 20.2 3 Nordeste 10 Noroeste 0.2 -- -- 89
2017-09-04 04:00:00 21 5 Oeste 9 Noroeste 0 -- -- 80
2017-09-04 03:00:00 20.7 5 Noroeste 21 Noroeste 0 -- -- 80
2017-09-04 02:00:00 20.4 15 Noroeste 23 Noroeste 0 -- -- 79
2017-09-04 01:00:00 20.6 9 Noroeste 19 Norte 0 -- -- 82
2017-09-04 00:00:00 20.8 9 Noroeste 14 Noroeste 0 -- -- 79
2017-09-03 23:00:00 21.3 4 Noroeste 5 Noroeste 0 -- -- 81
2017-09-03 22:00:00 21.5 0 Calma 5 Este 0 -- -- 79
2017-09-03 21:00:00 21.7 3 Este 10 Sudeste 0 -- -- 76
2017-09-03 20:00:00 22.2 3 Sudoeste 15 Sudeste 0 -- -- 72
2017-09-03 19:00:00 23.9 5 Sudeste 17 Sudeste 0 -- -- 66
2017-09-03 18:00:00 23.6 5 Sudeste 17 Sudeste 0 -- -- 66
2017-09-03 17:00:00 23.9 6 Sur 15 Este 0 -- -- 62
2017-09-03 16:00:00 25 8 Sur 18 Sudeste 0 -- -- 59
2017-09-03 15:00:00 25.1 10 Sudeste 18 Sudeste 0 -- -- 58
2017-09-03 14:00:00 23.8 4 Sudeste 16 Sur 0 -- -- 58
2017-09-03 13:00:00 24 5 Este 15 Sudeste 0 -- -- 53
2017-09-03 12:00:00 24 6 Este 12 Este 0 -- -- 53
2017-09-03 11:00:00 23.4 4 Sudeste 10 Norte 0 -- -- 58
2017-09-03 10:00:00 20.7 8 Norte 19 Norte 0 -- -- 64
2017-09-03 09:00:00 18.5 12 Norte 21 Norte 0 -- -- 72
2017-09-03 08:00:00 18 16 Norte 22 Norte 0 -- -- 73
2017-09-03 07:00:00 17.9 11 Norte 19 Noroeste 0 -- -- 82
2017-09-03 06:00:00 18 10 Norte 15 Norte 0 -- -- 83
2017-09-03 05:00:00 17.6 7 Norte 13 Nordeste 0 -- -- 87
2017-09-03 04:00:00 18 7 Norte 19 Norte 0 -- -- 90
2017-09-03 03:00:00 19.7 5 Oeste 15 Oeste 0 -- -- 92
2017-09-03 02:00:00 19.4 7 Este 30 Sur 7.8 -- -- 91
2017-09-03 01:00:00 20.8 9 Sur 17 Sur 0 -- -- 80
2017-09-03 00:00:00 20.4 8 Sur 17 Sur 0 -- -- 78
2017-09-02 23:00:00 20.7 9 Sur 18 Sudeste 0 -- -- 76
2017-09-02 22:00:00 21.2 9 Sur 19 Sudoeste 0 -- -- 74
2017-09-02 21:00:00 21.4 10 Sur 19 Sur 0 -- -- 75
2017-09-02 20:00:00 22.7 11 Sur 22 Sudeste 0 -- -- 70
2017-09-02 19:00:00 24.9 11 Sur 25 Sudeste 0 -- -- 63
2017-09-02 18:00:00 25.7 9 Sur 21 Sur 0 -- -- 59
2017-09-02 17:00:00 26.8 10 Sur 23 Sur 0 -- -- 57
2017-09-02 16:00:00 27.1 11 Sur 34 Sur 0 -- -- 58
2017-09-02 15:00:00 26.3 15 Sur 38 Sudoeste 0 -- -- 59
2017-09-02 14:00:00 25.4 26 Sur 41 Sur 0 -- -- 58
2017-09-02 13:00:00 24.6 22 Sur 36 Sudoeste 0 -- -- 58
2017-09-02 12:00:00 24.9 6 Sur 18 Oeste 0 -- -- 58
2017-09-02 11:00:00 22.5 9 Sudoeste 20 Oeste 0 -- -- 59
2017-09-02 10:00:00 19.7 11 Norte 22 Noroeste 0 -- -- 63
2017-09-02 09:00:00 18 14 Norte 23 Noroeste 0 -- -- 62
2017-09-02 08:00:00 16.9 13 Norte 19 Norte 0 -- -- 66
2017-09-02 07:00:00 16.5 14 Norte 20 Norte 0 -- -- 70
2017-09-02 06:00:00 16.2 11 Noroeste 19 Norte 0.4 -- -- 78
2017-09-02 05:00:00 17.6 9 Noroeste 24 Noroeste 0.6 -- -- 78
2017-09-02 04:00:00 18.4 13 Norte 23 Norte 0 -- -- 64
2017-09-02 03:00:00 19.3 14 Norte 21 Norte 0 -- -- 60
2017-09-02 02:00:00 20.1 6 Norte 19 Este 0 -- -- 56
2017-09-02 01:00:00 20.6 7 Este 15 Este 0 -- -- 55
2017-09-02 00:00:00 20.9 4 Nordeste 14 Este 0 -- -- 57
2017-09-01 23:00:00 20.9 5 Sudeste 14 Este 0 -- -- 74
2017-09-01 22:00:00 21 2 Sudeste 9 Noroeste 0.4 -- -- 77
2017-09-01 21:00:00 22 3 Sudoeste 10 Sudoeste 0 -- -- 63
2017-09-01 20:00:00 22.7 4 Este 10 Este 0 -- -- 59
2017-09-01 19:00:00 23.7 8 Sur 15 Sudeste 0 -- -- 59
2017-09-01 18:00:00 25.8 6 Sudeste 17 Sur 0 -- -- 52
2017-09-01 17:00:00 25.9 6 Sudeste 18 Sudeste 0 -- -- 53
2017-09-01 16:00:00 26.8 9 Sur 17 Sudeste 0 -- -- 54
2017-09-01 15:00:00 25.8 9 Sudeste 18 Sur 0 -- -- 56
2017-09-01 14:00:00 26.9 8 Sur 17 Sur 0 -- -- 56
2017-09-01 13:00:00 27 9 Sur 15 Sur 0 -- -- 54
2017-09-01 12:00:00 25.1 7 Sur 12 Sudeste 0 -- -- 59
2017-09-01 11:00:00 22.5 5 Sur 16 Norte 0 -- -- 63
2017-09-01 10:00:00 20.5 9 Norte 22 Norte 0 -- -- 65
2017-09-01 09:00:00 18.7 14 Norte 23 Norte 0 -- -- 72
2017-09-01 08:00:00 17.9 14 Norte 19 Norte 0 -- -- 73
2017-09-01 07:00:00 18.4 12 Norte 18 Norte 0 -- -- 69
2017-09-01 06:00:00 18.6 12 Norte 18 Norte 0 -- -- 69
2017-09-01 05:00:00 17.8 12 Norte 16 Norte 0 -- -- 74
2017-09-01 04:00:00 17.8 11 Noroeste 18 Norte 0 -- -- 78
2017-09-01 03:00:00 17.7 10 Norte 25 Norte 0 -- -- 86
2017-09-01 02:00:00 18 18 Norte 24 Norte 0 -- -- 90
2017-09-01 01:00:00 18.2 9 Norte 18 Norte 0 -- -- 86
2017-09-01 00:00:00 18.5 14 Norte 26 Norte 0 -- -- 84
2017-08-31 23:00:00 18.6 19 Norte 30 Norte 0 -- -- 83
2017-08-31 22:00:00 18.7 19 Norte 31 Norte 0 -- -- 81
2017-08-31 21:00:00 19.8 17 Norte 24 Norte 0 -- -- 76
2017-08-31 20:00:00 20.5 11 Norte 17 Norte 0 -- -- 73
2017-08-31 19:00:00 21.1 3 Este 12 Este 0 -- -- 88
2017-08-31 18:00:00 21 7 Nordeste 12 Este 0 -- -- 88
2017-08-31 17:00:00 21.4 2 Este 16 Este 0 -- -- 82
2017-08-31 16:00:00 20.8 8 Norte 15 Norte 0.2 -- -- 93
2017-08-31 15:00:00 19 5 Norte 16 Norte 0 -- -- 97
2017-08-31 14:00:00 19.1 2 Sur 16 Norte 0.2 -- -- 98
2017-08-31 13:00:00 18.8 8 Norte 13 Norte 5.2 -- -- 97
2017-08-31 12:00:00 19.1 6 Nordeste 31 Norte 20.2 -- -- 95
2017-08-31 11:00:00 20.7 14 Norte 25 Nordeste 0 -- -- 84
2017-08-31 10:00:00 20.8 17 Norte 26 Noroeste 0.2 -- -- 84
2017-08-31 09:00:00 20.5 17 Norte 26 Norte 0 -- -- 86
2017-08-31 08:00:00 20.9 14 Noroeste 22 Noroeste 0.2 -- -- 88
2017-08-31 07:00:00 21.1 9 Norte 22 Este 0.4 -- -- 85
2017-08-31 06:00:00 22.6 5 Norte 14 Nordeste 0 -- -- 78
2017-08-31 05:00:00 23.1 4 Oeste 14 Sudoeste 0 -- -- 75
2017-08-31 04:00:00 23 8 Sudoeste 14 Sudoeste 0 -- -- 77
2017-08-31 03:00:00 22.7 8 Sudoeste 12 Sudoeste 0 -- -- 79
2017-08-31 02:00:00 23 7 Sudoeste 14 Noroeste 0 -- -- 75
2017-08-31 01:00:00 22.8 6 Sudoeste 16 Sudoeste 0 -- -- 83
2017-08-31 00:00:00 23 6 Sudoeste 13 Sur 0 -- -- 84
2017-08-30 23:00:00 23.4 9 Oeste 29 Oeste 0 -- -- 81
2017-08-30 22:00:00 23.7 9 Sudoeste 25 Oeste 0 -- -- 84
2017-08-30 21:00:00 23.9 13 Sudoeste 31 Sudoeste 0 -- -- 83
2017-08-30 20:00:00 24.3 14 Sudoeste 38 Sur 0 -- -- 78
2017-08-30 19:00:00 25.6 17 Sur 45 Sur 0 -- -- 71
2017-08-30 18:00:00 26.6 18 Sur 51 Sudoeste 0 -- -- 67
2017-08-30 17:00:00 27 22 Sur 51 Sudoeste 0 -- -- 64
2017-08-30 16:00:00 27.5 24 Sur 59 Sudoeste 0 -- -- 62
2017-08-30 15:00:00 28.1 27 Sur 51 Sudoeste 0 -- -- 59
2017-08-30 14:00:00 27.6 23 Sur 51 Sur 0 -- -- 57
2017-08-30 13:00:00 27.4 23 Sur 41 Sur 0 -- -- 59
2017-08-30 12:00:00 26.9 16 Sur 34 Sur 0 -- -- 60
2017-08-30 11:00:00 27.1 6 Sudoeste 28 Sudoeste 0 -- -- 60
2017-08-30 10:00:00 25.7 6 Sur 16 Noroeste 0 -- -- 62
2017-08-30 09:00:00 24.5 7 Noroeste 21 Oeste 0 -- -- 58
2017-08-30 08:00:00 24.1 8 Oeste 25 Oeste 0 -- -- 59
2017-08-30 07:00:00 24 5 Oeste 18 Oeste 0 -- -- 60
2017-08-30 06:00:00 24.8 8 Oeste 20 Oeste 0 -- -- 55
2017-08-30 05:00:00 25.5 10 Noroeste 25 Oeste 0 -- -- 47
2017-08-30 04:00:00 25.9 12 Oeste 19 Oeste 0 -- -- 49
2017-08-30 03:00:00 25.5 5 Norte 18 Noroeste 0 -- -- 48
2017-08-30 02:00:00 25 4 Norte 6 Oeste 0 -- -- 49
2017-08-30 01:00:00 25.6 5 Noroeste 10 Norte 0 -- -- 50
2017-08-30 00:00:00 25.8 6 Oeste 13 Oeste 0 -- -- 60
2017-08-29 23:00:00 25.9 2 Nordeste 17 Sudoeste 0 -- -- 65
2017-08-29 22:00:00 26.8 9 Oeste 16 Oeste 0 -- -- 66
2017-08-29 21:00:00 27.5 8 Oeste 14 Oeste 0 -- -- 60
2017-08-29 20:00:00 28.3 5 Sudoeste 34 Oeste 0 -- -- 53
2017-08-29 19:00:00 28.2 18 Sudoeste 43 Oeste 0 -- -- 66
2017-08-29 18:00:00 28.4 16 Sudoeste 52 Sur 0 -- -- 67
2017-08-29 17:00:00 28.9 24 Sur 48 Sudoeste 0 -- -- 71
2017-08-29 16:00:00 29.9 18 Sur 42 Sudoeste 0 -- -- 69
2017-08-29 15:00:00 30.3 26 Sur 41 Sur 0 -- -- 67
2017-08-29 14:00:00 30.5 24 Sur 41 Sudoeste 0 -- -- 67
2017-08-29 13:00:00 30.3 21 Sur 38 Sudoeste 0 -- -- 68
2017-08-29 12:00:00 30.5 16 Sur 37 Sudoeste 0 -- -- 68
2017-08-29 11:00:00 29.1 23 Sur 35 Sudoeste 0 -- -- 67
2017-08-29 10:00:00 28.3 10 Sur 19 Sur 0 -- -- 70
2017-08-29 09:00:00 25.9 5 Sudoeste 13 Sudoeste 0 -- -- 75
2017-08-29 08:00:00 23.8 5 Norte 10 Oeste 0 -- -- 81
2017-08-29 07:00:00 24.4 6 Noroeste 16 Oeste 0 -- -- 80
2017-08-29 06:00:00 24.4 6 Sudoeste 12 Oeste 0 -- -- 87
2017-08-29 05:00:00 24.9 3 Norte 17 Oeste 0 -- -- 85
2017-08-29 04:00:00 25.2 9 Oeste 26 Sudoeste 0 -- -- 89
2017-08-29 03:00:00 25.4 13 Sur 26 Sudoeste 0 -- -- 91
2017-08-29 02:00:00 25.4 9 Sur 23 Sudoeste 0 -- -- 89
2017-08-29 01:00:00 25.6 6 Oeste 22 Sudoeste 0 -- -- 90
2017-08-29 00:00:00 25.5 6 Sudoeste 17 Sur 0 -- -- 89
2017-08-28 23:00:00 25 6 Sudoeste 12 Sur 0 -- -- 88
2017-08-28 22:00:00 25 3 Norte 6 Noroeste 0 -- -- 85
2017-08-28 21:00:00 25.3 4 Norte 19 Sudoeste 0 -- -- 86
2017-08-28 20:00:00 26.2 8 Sudoeste 19 Sur 0 -- -- 81
2017-08-28 19:00:00 27.8 7 Sur 15 Sur 0 -- -- 75
2017-08-28 18:00:00 28.4 9 Sur 16 Sudeste 0 -- -- 74
2017-08-28 17:00:00 27.2 8 Este 19 Este 0 -- -- 78
2017-08-28 16:00:00 27.3 9 Este 26 Este 0 -- -- 76
2017-08-28 15:00:00 28.1 9 Este 21 Este 0 -- -- 76
2017-08-28 14:00:00 28.2 11 Este 21 Este 0 -- -- 76
2017-08-28 13:00:00 30.4 6 Sudeste 12 Sudeste 0 -- -- 68
2017-08-28 12:00:00 29.9 9 Sur 13 Sur 0 -- -- 69
2017-08-28 11:00:00 29 6 Sur 12 Sur 0 -- -- 73
2017-08-28 10:00:00 27.1 6 Sur 9 Sur 0 -- -- 78
2017-08-28 09:00:00 24.8 5 Sur 10 Sudoeste 0 -- -- 88
2017-08-28 08:00:00 23 6 Oeste 9 Oeste 0 -- -- 93
2017-08-28 07:00:00 22.5 3 Oeste 5 Noroeste 0 -- -- 93
2017-08-28 06:00:00 22.7 0 Calma 5 Oeste 0 -- -- 90
2017-08-28 05:00:00 23.2 4 Norte 8 Noroeste 0 -- -- 88
2017-08-28 04:00:00 23.7 6 Norte 18 Norte 0 -- -- 86
2017-08-28 03:00:00 24 8 Norte 21 Norte 0 -- -- 88
2017-08-28 02:00:00 24.1 11 Norte 16 Norte 0 -- -- 88
2017-08-28 01:00:00 24.4 5 Norte 17 Norte 0 -- -- 87
2017-08-28 00:00:00 24.7 0 Calma 9 Sudoeste 0 -- -- 88
2017-08-27 23:00:00 24.9 3 Oeste 13 Sur 0 -- -- 87
2017-08-27 22:00:00 25 5 Sur 25 Sur 0 -- -- 87
2017-08-27 21:00:00 25 9 Nordeste 16 Nordeste 0 -- -- 85
2017-08-27 20:00:00 25.7 8 Sur 17 Sudoeste 0 -- -- 82
2017-08-27 19:00:00 26.3 4 Sudeste 12 Este 0 -- -- 82
2017-08-27 18:00:00 25.6 8 Este 21 Este 0 -- -- 84
2017-08-27 17:00:00 25.9 12 Este 21 Este 0 -- -- 83
2017-08-27 16:00:00 27.1 10 Este 23 Nordeste 0 -- -- 75
2017-08-27 15:00:00 26.7 15 Este 28 Este 0 -- -- 76
2017-08-27 14:00:00 26.8 15 Este 29 Nordeste 0 -- -- 76
2017-08-27 13:00:00 26.4 14 Este 26 Este 0 -- -- 78
2017-08-27 12:00:00 26.1 10 Este 26 Este 0 -- -- 82
2017-08-27 11:00:00 25.5 15 Este 27 Este 0 -- -- 85
2017-08-27 10:00:00 25.5 11 Este 20 Nordeste 0 -- -- 82
2017-08-27 09:00:00 24.5 10 Norte 23 Norte 0 -- -- 83
2017-08-27 08:00:00 23 14 Norte 20 Norte 0 -- -- 91
2017-08-27 07:00:00 22.9 13 Norte 23 Norte 0 -- -- 92
2017-08-27 06:00:00 22.8 10 Norte 15 Norte 0 -- -- 92
2017-08-27 05:00:00 23.2 9 Norte 14 Noroeste 0 -- -- 92
2017-08-27 04:00:00 23.8 6 Noroeste 11 Este 0 -- -- 91
2017-08-27 03:00:00 23.9 3 Nordeste 9 Este 0 -- -- 92
2017-08-27 02:00:00 23.8 5 Nordeste 9 Nordeste 0 -- -- 91
2017-08-27 01:00:00 24 4 Nordeste 8 Este 0 -- -- 89
2017-08-27 00:00:00 24.6 3 Noroeste 9 Sur 0 -- -- 87
2017-08-26 23:00:00 24.5 4 Sudoeste 7 Sur 0 -- -- 89
2017-08-26 22:00:00 25 4 Sur 7 Sur 0 -- -- 86
2017-08-26 21:00:00 25.7 0 Calma 6 Sudeste 0 -- -- 83
2017-08-26 20:00:00 27.1 4 Sur 11 Sur 0 -- -- 77
2017-08-26 19:00:00 28.6 6 Sur 14 Sudeste 0 -- -- 71
2017-08-26 18:00:00 29.9 8 Sudeste 14 Sudeste 0 -- -- 67
2017-08-26 17:00:00 30.9 9 Sudeste 15 Sudeste 0 -- -- 62
2017-08-26 16:00:00 31 9 Sur 15 Sur 0 -- -- 62
2017-08-26 15:00:00 32.1 10 Sudeste 15 Sur 0 -- -- 59
2017-08-26 14:00:00 32.1 12 Sur 18 Sur 0 -- -- 60
2017-08-26 13:00:00 30.8 10 Sudeste 15 Sudeste 0 -- -- 64
2017-08-26 12:00:00 29.9 10 Sudeste 15 Sur 0 -- -- 68
2017-08-26 11:00:00 28 7 Este 10 Nordeste 0 -- -- 76
2017-08-26 10:00:00 27.2 4 Sudeste 8 Sudeste 0 -- -- 79
2017-08-26 09:00:00 24.9 4 Nordeste 10 Noroeste 0 -- -- 87
2017-08-26 08:00:00 23.3 8 Noroeste 13 Noroeste 0 -- -- 90
2017-08-26 07:00:00 23.2 5 Norte 6 Norte 0 -- -- 91
2017-08-26 06:00:00 23.3 3 Noroeste 19 Noroeste 0 -- -- 91
2017-08-26 05:00:00 23.3 2 Oeste 11 Norte 0 -- -- 92
2017-08-26 04:00:00 23.7 3 Nordeste 5 Este 0 -- -- 92
2017-08-26 03:00:00 23.9 2 Oeste 8 Oeste 0 -- -- 91
2017-08-26 02:00:00 24.2 5 Oeste 19 Sudoeste 0 -- -- 89
2017-08-26 01:00:00 24 8 Sur 14 Sur 0 -- -- 91
2017-08-26 00:00:00 24.1 5 Sur 11 Sur 0 -- -- 90